createdAt,value
2023-02-13T00:00:27.357Z,37.17
2023-02-13T00:05:29.503Z,34.93
2023-02-13T00:10:33.361Z,36.03
2023-02-13T00:15:35.715Z,32.80
2023-02-13T00:20:37.796Z,28.90
2023-02-13T00:25:41.962Z,27.07
2023-02-13T00:30:43.833Z,30.67
2023-02-13T00:35:46.578Z,29.93
2023-02-13T00:40:50.467Z,31.93
2023-02-13T00:45:52.673Z,23.50
2023-02-13T00:50:54.904Z,27.50
2023-02-13T00:55:58.851Z,24.73
2023-02-13T01:01:01.473Z,32.07
2023-02-13T01:06:03.772Z,28.13
2023-02-13T01:11:07.994Z,28.37
2023-02-13T01:16:10.242Z,32.33
2023-02-13T01:21:18.602Z,27.43
2023-02-13T01:26:24.397Z,28.53
2023-02-13T01:31:27.315Z,26.73
2023-02-13T01:36:29.357Z,26.67
2023-02-13T01:41:33.096Z,28.40
2023-02-13T01:46:38.893Z,24.93
2023-02-13T01:51:42.300Z,32.63
2023-02-13T01:56:48.869Z,29.40
2023-02-13T02:01:51.794Z,25.73
2023-02-13T02:06:57.349Z,29.30
2023-02-13T02:12:06.248Z,24.33
2023-02-13T02:17:09.031Z,23.57
2023-02-13T02:22:36.391Z,27.37
2023-02-13T02:28:04.467Z,25.90
2023-02-13T02:33:19.919Z,29.43
2023-02-13T02:38:41.792Z,27.80
2023-02-13T02:43:57.554Z,30.47
2023-02-13T02:49:24.579Z,30.17
2023-02-13T02:54:50.058Z,29.93
2023-02-13T03:00:11.774Z,29.87
2023-02-13T03:05:49.124Z,31.97
2023-02-13T03:11:08.880Z,29.37
2023-02-13T03:16:32.202Z,27.23
2023-02-13T03:22:05.481Z,30.33
2023-02-13T03:27:13.361Z,30.47
2023-02-13T03:32:25.489Z,34.20
2023-02-13T03:37:46.188Z,38.40
2023-02-13T03:42:54.033Z,36.40
2023-02-13T03:48:00.279Z,33.63
2023-02-13T03:53:07.747Z,31.90
2023-02-13T03:58:32.346Z,34.33
2023-02-13T04:03:42.688Z,31.67
2023-02-13T04:08:46.726Z,36.13
2023-02-13T04:13:53.377Z,34.40
2023-02-13T04:18:58.107Z,40.33
2023-02-13T04:24:01.472Z,40.50
2023-02-13T04:29:03.711Z,43.80
2023-02-13T04:34:06.188Z,39.47
2023-02-13T04:39:09.912Z,40.10
2023-02-13T04:44:12.274Z,37.23
2023-02-13T04:49:14.397Z,35.17
2023-02-13T04:54:17.730Z,30.63
2023-02-13T04:59:20.885Z,38.30
2023-02-13T05:04:23.466Z,36.60
2023-02-13T05:09:27.736Z,38.97
2023-02-13T05:14:30.038Z,42.00
2023-02-13T05:19:33.028Z,41.47
2023-02-13T05:24:37.646Z,34.87
2023-02-13T05:29:40.554Z,41.40
2023-02-13T05:34:43.264Z,44.70
2023-02-13T05:39:47.162Z,44.00
2023-02-13T05:44:49.295Z,54.23
2023-02-13T05:49:51.136Z,57.60
2023-02-13T05:54:54.741Z,55.47
2023-02-13T05:59:57.142Z,56.00
2023-02-13T06:04:59.261Z,63.53
2023-02-13T06:10:03.278Z,68.30
2023-02-13T06:15:06.400Z,71.13
2023-02-13T06:20:09.996Z,62.97
2023-02-13T06:25:13.986Z,58.47
2023-02-13T06:30:17.884Z,63.50
2023-02-13T06:35:20.273Z,67.93
2023-02-13T06:40:24.327Z,66.30
2023-02-13T06:45:27.047Z,59.93
2023-02-13T06:50:29.503Z,58.13
2023-02-13T06:55:33.405Z,51.00
2023-02-13T07:00:39.224Z,52.80
2023-02-13T07:05:42.212Z,46.87
2023-02-13T07:10:45.760Z,55.50
2023-02-13T07:15:47.794Z,55.83
2023-02-13T07:20:50.031Z,51.70
2023-02-13T07:25:54.044Z,60.13
2023-02-13T07:30:56.932Z,56.80
2023-02-13T07:35:59.268Z,55.03
2023-02-13T07:41:03.541Z,51.67
2023-02-13T07:46:06.253Z,54.27
2023-02-13T07:51:08.822Z,60.03
2023-02-13T07:56:12.929Z,55.70
2023-02-13T08:01:17.822Z,53.83
2023-02-13T08:06:21.044Z,54.60
2023-02-13T08:11:47.162Z,48.63
2023-02-13T08:16:49.693Z,52.60
2023-02-13T08:21:52.176Z,48.23
2023-02-13T08:26:56.889Z,44.30
2023-02-13T08:31:59.066Z,46.80
2023-02-13T08:37:02.567Z,40.90
2023-02-13T08:42:06.015Z,38.53
2023-02-13T08:47:08.528Z,44.43
2023-02-13T08:52:10.447Z,41.97
2023-02-13T08:57:13.826Z,37.57
2023-02-13T09:02:16.055Z,46.13
2023-02-13T09:07:18.554Z,37.50
2023-02-13T09:12:22.306Z,42.40
2023-02-13T09:17:24.707Z,43.80
2023-02-13T09:22:26.971Z,53.13
2023-02-13T09:27:30.535Z,39.90
2023-02-13T09:32:34.377Z,39.67
2023-02-13T09:37:36.640Z,39.87
2023-02-13T09:42:40.741Z,41.67
2023-02-13T09:47:44.219Z,40.03
2023-02-13T09:52:48.087Z,37.50
2023-02-13T09:57:59.572Z,38.27
2023-02-13T10:03:22.500Z,35.20
2023-02-13T10:08:43.730Z,36.37
2023-02-13T10:14:08.057Z,37.07
2023-02-13T10:19:20.474Z,32.40
2023-02-13T10:24:32.180Z,32.13
2023-02-13T10:30:02.671Z,28.20
2023-02-13T10:35:16.994Z,32.03
2023-02-13T10:40:20.576Z,30.63
2023-02-13T10:45:49.747Z,30.07
2023-02-13T10:51:05.898Z,29.50
2023-02-13T10:56:25.545Z,28.07
2023-02-13T11:01:35.326Z,27.77
2023-02-13T11:06:39.933Z,26.80
2023-02-13T11:11:44.224Z,28.27
2023-02-13T11:16:53.999Z,24.83
2023-02-13T11:21:58.884Z,27.03
2023-02-13T11:27:04.765Z,28.87
2023-02-13T11:32:23.014Z,27.55
2023-02-13T11:37:27.759Z,25.23
2023-02-13T11:42:33.506Z,27.75
2023-02-13T11:47:43.188Z,29.67
2023-02-13T11:52:46.314Z,28.30
2023-02-13T11:57:59.310Z,27.55
2023-02-13T12:03:02.859Z,26.58
2023-02-13T12:08:10.468Z,25.35
2023-02-13T12:13:16.906Z,22.63
2023-02-13T12:18:24.964Z,21.83
2023-02-13T12:23:35.482Z,27.75
2023-02-13T12:29:03.452Z,23.70
2023-02-13T12:34:31.895Z,26.08
2023-02-13T12:39:36.930Z,25.13
2023-02-13T12:44:55.371Z,25.77
2023-02-13T12:50:19.260Z,25.15
2023-02-13T12:55:35.249Z,23.98
2023-02-13T13:00:49.298Z,22.63
2023-02-13T13:06:12.955Z,30.05
2023-02-13T13:11:29.638Z,27.77
2023-02-13T13:16:45.472Z,28.63
2023-02-13T13:21:54.662Z,27.17
2023-02-13T13:26:58.188Z,27.92
2023-02-13T13:32:04.982Z,26.58
2023-02-13T13:37:18.425Z,30.08
2023-02-13T13:42:27.095Z,28.13
2023-02-13T13:47:47.495Z,29.40
2023-02-13T13:53:10.583Z,28.13
2023-02-13T13:58:23.402Z,27.25
2023-02-13T14:03:36.671Z,27.20
2023-02-13T14:09:31.085Z,32.72
2023-02-13T14:14:54.381Z,28.77
2023-02-13T14:19:58.515Z,27.90
2023-02-13T14:25:03.999Z,29.55
2023-02-13T14:30:09.499Z,27.80
2023-02-13T14:35:22.265Z,29.58
2023-02-13T14:40:47.940Z,28.77
2023-02-13T14:45:56.748Z,27.80
2023-02-13T14:51:00.278Z,30.00
2023-02-13T14:56:07.167Z,27.45
2023-02-13T15:01:25.138Z,28.83
2023-02-13T15:06:30.042Z,28.40
2023-02-13T15:11:39.069Z,30.83
2023-02-13T15:16:43.150Z,33.22
2023-02-13T15:21:52.046Z,33.15
2023-02-13T15:27:03.079Z,33.70
2023-02-13T15:32:21.879Z,33.63
2023-02-13T15:37:26.363Z,34.30
2023-02-13T15:42:32.561Z,37.10
2023-02-13T15:47:36.995Z,38.27
2023-02-13T15:52:41.382Z,36.83
2023-02-13T15:57:44.727Z,37.33
2023-02-13T16:02:52.847Z,35.27
2023-02-13T16:07:57.571Z,36.30
2023-02-13T16:13:02.372Z,36.83
2023-02-13T16:18:13.693Z,41.33
2023-02-13T16:23:19.948Z,40.57
2023-02-13T16:28:26.075Z,37.23
2023-02-13T16:33:34.906Z,36.10
2023-02-13T16:38:39.247Z,37.87
2023-02-13T16:43:47.394Z,36.70
2023-02-13T16:49:15.121Z,31.77
2023-02-13T16:54:27.768Z,39.50
2023-02-13T16:59:41.731Z,37.60
2023-02-13T17:04:51.250Z,39.57
2023-02-13T17:10:02.809Z,36.40
2023-02-13T17:15:07.797Z,41.70
2023-02-13T17:20:25.979Z,46.13
2023-02-13T17:25:31.013Z,37.77
2023-02-13T17:30:35.923Z,43.33
2023-02-13T17:35:40.540Z,48.40
2023-02-13T17:40:44.996Z,46.80
2023-02-13T17:45:50.284Z,45.10
2023-02-13T17:50:54.872Z,39.03
2023-02-13T17:55:58.199Z,44.63
2023-02-13T18:01:03.810Z,42.73
2023-02-13T18:06:13.229Z,42.83
2023-02-13T18:11:17.172Z,42.43
2023-02-13T18:16:23.260Z,49.00
2023-02-13T18:21:28.003Z,52.40
2023-02-13T18:26:31.846Z,47.80
2023-02-13T18:31:36.299Z,45.53
2023-02-13T18:36:45.433Z,54.90
2023-02-13T18:41:49.357Z,50.13
2023-02-13T18:46:55.005Z,60.77
2023-02-13T18:52:03.436Z,52.27
2023-02-13T18:57:10.576Z,45.47
2023-02-13T19:02:14.736Z,47.60
2023-02-13T19:07:22.381Z,42.27
2023-02-13T19:12:24.954Z,43.57
2023-02-13T19:17:31.050Z,52.13
2023-02-13T19:22:36.166Z,48.37
2023-02-13T19:27:41.154Z,50.17
2023-02-13T19:32:45.141Z,47.00
2023-02-13T19:37:51.014Z,47.53
2023-02-13T19:42:55.952Z,49.50
2023-02-13T19:48:04.314Z,50.37
2023-02-13T19:53:12.698Z,39.77
2023-02-13T19:58:15.840Z,43.83
2023-02-13T20:03:20.894Z,45.57
2023-02-13T20:08:26.631Z,47.93
2023-02-13T20:13:32.736Z,41.37
2023-02-13T20:18:38.643Z,45.33
2023-02-13T20:23:49.301Z,42.93
2023-02-13T20:28:53.816Z,38.77
2023-02-13T20:33:57.711Z,46.50
2023-02-13T20:39:04.783Z,51.10
2023-02-13T20:45:09.028Z,48.97
2023-02-13T20:50:28.397Z,48.97
2023-02-13T20:55:58.468Z,56.53
2023-02-13T21:01:14.179Z,47.27
2023-02-13T21:06:18.890Z,53.43
2023-02-13T21:11:24.937Z,50.80
2023-02-13T21:16:34.758Z,62.00
2023-02-13T21:21:39.744Z,57.10
2023-02-13T21:26:47.053Z,53.23
2023-02-13T21:31:51.487Z,58.43
2023-02-13T21:36:55.460Z,52.57
2023-02-13T21:41:59.919Z,58.30
2023-02-13T21:47:02.389Z,54.07
2023-02-13T21:52:04.528Z,52.77
2023-02-13T21:57:08.365Z,52.80
2023-02-13T22:02:12.211Z,46.70
2023-02-13T22:07:14.327Z,49.13
2023-02-13T22:12:17.956Z,57.27
2023-02-13T22:17:22.184Z,52.07
2023-02-13T22:22:24.455Z,54.77
2023-02-13T22:27:28.182Z,61.17
2023-02-13T22:32:30.672Z,57.63
2023-02-13T22:37:33.166Z,55.27
2023-02-13T22:42:37.082Z,53.53
2023-02-13T22:47:39.311Z,54.23
2023-02-13T22:52:41.845Z,57.57
2023-02-13T22:57:47.143Z,51.97
2023-02-13T23:02:50.099Z,66.93
2023-02-13T23:07:52.377Z,71.73
2023-02-13T23:12:56.112Z,70.90
2023-02-13T23:18:18.133Z,67.13
2023-02-13T23:23:21.327Z,67.67
2023-02-13T23:28:25.097Z,66.87
2023-02-13T23:33:27.522Z,77.07
2023-02-13T23:38:29.801Z,72.50
2023-02-13T23:43:33.390Z,67.73
2023-02-13T23:48:36.057Z,74.57
2023-02-13T23:53:38.506Z,76.77
2023-02-13T23:58:42.200Z,74.60
